Time;durP1;ratioP1;P1;durP2;ratioP2;P2;SDS_P1;SDS_P2;PMS_P1;PMS_P2;Temp;Humidity;BMP_temperature;BMP_pressure;BME280_temperature;BME280_humidity;BME280_pressure;Samples;Min_cycle;Max_cycle;Signal;HPM_P1;HPM_P2
2023/01/04 00:01:18;;;;;;;1.63;1.53;;;;;;;;;;5088869;28;20436;-75
2023/01/04 00:03:44;;;;;;;5.90;1.83;;;;;;;;;;5086235;28;20466;-75
2023/01/04 00:06:12;;;;;;;2.17;1.43;;;;;;;;;;5098441;28;20436;-75
2023/01/04 00:08:38;;;;;;;1.00;1.00;;;;;;;;;;5092600;28;20980;-75
2023/01/04 00:11:05;;;;;;;1.00;1.00;;;;;;;;;;5092698;28;20463;-74
2023/01/04 00:13:32;;;;;;;1.40;1.20;;;;;;;;;;5081973;28;20482;-75
2023/01/04 00:16:06;;;;;;;2.17;1.47;;;;;;;;;;5095199;28;20420;-75
2023/01/04 00:18:32;;;;;;;1.23;1.23;;;;;;;;;;5092342;28;20526;-75
2023/01/04 00:21:06;;;;;;;2.70;1.30;;;;;;;;;;5081586;28;20183;-75
2023/01/04 00:23:32;;;;;;;1.67;0.90;;;;;;;;;;5072695;28;20511;-75
2023/01/04 00:25:58;;;;;;;2.17;0.87;;;;;;;;;;5104624;28;20419;-75
2023/01/04 00:28:24;;;;;;;4.90;2.83;;;;;;;;;;5075927;28;20443;-75
2023/01/04 00:30:50;;;;;;;1.33;1.33;;;;;;;;;;5095609;28;20485;-75
2023/01/04 00:33:16;;;;;;;1.37;1.27;;;;;;;;;;5088379;28;20448;-74
2023/01/04 00:35:42;;;;;;;0.97;0.97;;;;;;;;;;5085225;28;20473;-76
2023/01/04 00:38:08;;;;;;;1.83;1.60;;;;;;;;;;5089256;28;20987;-75
2023/01/04 00:40:34;;;;;;;1.90;1.10;;;;;;;;;;5080754;28;20424;-75
2023/01/04 00:43:00;;;;;;;3.13;1.60;;;;;;;;;;5079253;28;20440;-74
2023/01/04 00:45:26;;;;;;;1.50;1.50;;;;;;;;;;5073588;28;20783;-74
2023/01/04 00:47:52;;;;;;;1.43;1.10;;;;;;;;;;5105645;28;20442;-74
2023/01/04 00:50:18;;;;;;;1.10;1.07;;;;;;;;;;5092926;28;21232;-75
2023/01/04 00:52:44;;;;;;;3.83;1.40;;;;;;;;;;5086354;28;20463;-74
2023/01/04 00:55:10;;;;;;;0.90;0.90;;;;;;;;;;5070111;28;20416;-74
2023/01/04 00:57:36;;;;;;;1.30;1.30;;;;;;;;;;5089134;28;20443;-75
2023/01/04 01:00:03;;;;;;;4.30;1.93;;;;;;;;;;5074067;28;20895;-74
2023/01/04 01:02:29;;;;;;;1.23;1.13;;;;;;;;;;5088735;28;20446;-75
2023/01/04 01:04:55;;;;;;;1.13;1.13;;;;;;;;;;5082561;28;20408;-74
2023/01/04 01:07:21;;;;;;;2.67;0.90;;;;;;;;;;5097620;28;20419;-75
2023/01/04 01:09:47;;;;;;;2.40;1.00;;;;;;;;;;5078487;28;20578;-75
2023/01/04 01:12:13;;;;;;;3.80;1.43;;;;;;;;;;5092871;28;20432;-76
2023/01/04 01:14:39;;;;;;;1.80;1.73;;;;;;;;;;5064079;28;21615;-75
2023/01/04 01:17:05;;;;;;;3.27;1.23;;;;;;;;;;5082881;28;20440;-74
2023/01/04 01:19:31;;;;;;;2.43;0.80;;;;;;;;;;5094476;28;20465;-75
2023/01/04 01:21:57;;;;;;;3.40;1.37;;;;;;;;;;5079027;28;20456;-75
2023/01/04 01:24:23;;;;;;;1.70;1.50;;;;;;;;;;5079774;28;21109;-76
2023/01/04 01:26:49;;;;;;;3.13;1.30;;;;;;;;;;5092934;28;20485;-76
2023/01/04 01:29:15;;;;;;;1.43;0.90;;;;;;;;;;5071991;28;20945;-76
2023/01/04 01:31:41;;;;;;;5.55;1.73;;;;;;;;;;5085813;28;20434;-76
2023/01/04 01:34:08;;;;;;;2.60;1.37;;;;;;;;;;5086514;28;20205;-76
2023/01/04 01:36:34;;;;;;;2.10;1.80;;;;;;;;;;5096256;28;20465;-75
2023/01/04 01:39:00;;;;;;;1.13;1.03;;;;;;;;;;5095404;28;20582;-75
2023/01/04 01:41:27;;;;;;;1.60;1.60;;;;;;;;;;5092849;28;20435;-78
2023/01/04 01:43:54;;;;;;;0.95;0.95;;;;;;;;;;5087136;28;20444;-76
2023/01/04 01:46:23;;;;;;;4.57;1.38;;;;;;;;;;5081625;28;20304;-75
2023/01/04 01:48:51;;;;;;;0.90;0.90;;;;;;;;;;5097370;28;20221;-75
2023/01/04 01:51:18;;;;;;;1.00;1.00;;;;;;;;;;5085231;28;20465;-75
2023/01/04 01:53:46;;;;;;;2.20;0.90;;;;;;;;;;5088848;28;20803;-76
2023/01/04 01:56:12;;;;;;;1.10;1.10;;;;;;;;;;5095550;28;21009;-76
2023/01/04 01:58:39;;;;;;;0.80;0.80;;;;;;;;;;5091110;28;20494;-77
2023/01/04 02:01:07;;;;;;;10.30;1.43;;;;;;;;;;5085655;28;20447;-76
2023/01/04 02:03:35;;;;;;;1.40;1.40;;;;;;;;;;5088690;28;20439;-76
2023/01/04 02:06:03;;;;;;;1.77;1.50;;;;;;;;;;5077724;28;20440;-77
2023/01/04 02:08:29;;;;;;;1.90;1.47;;;;;;;;;;5099060;28;20446;-76
2023/01/04 02:10:55;;;;;;;2.57;1.67;;;;;;;;;;5081423;28;20479;-77
2023/01/04 02:13:24;;;;;;;5.07;1.60;;;;;;;;;;5101141;28;20484;-76
2023/01/04 02:16:26;;;;;;;2.80;1.00;;;;;;;;;;5107136;28;20415;-77
2023/01/04 02:18:57;;;;;;;10.43;2.10;;;;;;;;;;5047874;28;20506;-77
2023/01/04 02:21:29;;;;;;;4.10;1.07;;;;;;;;;;5070705;28;20446;-77
2023/01/04 02:24:21;;;;;;;5.33;1.30;;;;;;;;;;5066668;28;20536;-77
2023/01/04 02:27:06;;;;;;;1.33;1.23;;;;;;;;;;5071708;28;20436;-77
2023/01/04 02:29:50;;;;;;;2.30;0.80;;;;;;;;;;5079311;28;20470;-76
2023/01/04 02:32:30;;;;;;;1.13;1.03;;;;;;;;;;5084342;28;20428;-78
2023/01/04 02:35:16;;;;;;;3.07;1.50;;;;;;;;;;5079773;28;20895;-77
2023/01/04 02:37:51;;;;;;;3.30;1.70;;;;;;;;;;5057545;28;20443;-78
2023/01/04 02:40:20;;;;;;;2.43;1.60;;;;;;;;;;5090469;28;20431;-78
2023/01/04 02:45:55;;;;;;;2.00;1.90;;;;;;;;;;5076243;28;20831;-76
2023/01/04 02:51:25;;;;;;;1.50;1.50;;;;;;;;;;5082165;28;20454;-78
2023/01/04 02:53:51;;;;;;;1.17;1.00;;;;;;;;;;5091600;28;20456;-77
2023/01/04 02:56:34;;;;;;;2.93;1.50;;;;;;;;;;5092516;28;20475;-78
2023/01/04 02:59:03;;;;;;;2.43;2.00;;;;;;;;;;5092087;28;20424;-76
2023/01/04 03:07:25;;;;;;;5.93;1.60;;;;;;;;;;5071955;28;21182;-78
2023/01/04 03:09:54;;;;;;;2.93;1.40;;;;;;;;;;5077210;28;20473;-77
2023/01/04 03:12:31;;;;;;;1.53;1.37;;;;;;;;;;5092672;28;20444;-77
2023/01/04 03:15:20;;;;;;;2.77;2.60;;;;;;;;;;5081780;28;20447;-77
2023/01/04 03:17:49;;;;;;;2.20;2.10;;;;;;;;;;5078385;28;20454;-77
2023/01/04 03:20:17;;;;;;;6.23;2.20;;;;;;;;;;5085868;28;20427;-77
2023/01/04 03:37:03;;;;;;;4.93;2.55;;;;;;;;;;5076768;28;20423;-74
2023/01/04 03:50:57;;;;;;;3.23;2.50;;;;;;;;;;5082753;28;21003;-77
2023/01/04 03:53:24;;;;;;;3.30;2.23;;;;;;;;;;5079461;28;20573;-77
2023/01/04 03:55:51;;;;;;;2.00;1.90;;;;;;;;;;5071848;28;20590;-76
2023/01/04 03:58:18;;;;;;;2.13;1.70;;;;;;;;;;5101136;28;20569;-77
2023/01/04 04:00:45;;;;;;;4.72;1.60;;;;;;;;;;5096428;28;20431;-77
2023/01/04 04:03:11;;;;;;;1.90;1.90;;;;;;;;;;5075757;28;20197;-77
2023/01/04 04:08:29;;;;;;;3.23;2.37;;;;;;;;;;5071510;28;20465;-78
2023/01/04 04:11:47;;;;;;;1.23;1.23;;;;;;;;;;5079480;28;20513;-79
2023/01/04 04:13:49;;;;;;;4.83;2.07;;;;;;;;;;5069805;28;20440;-78
2023/01/04 04:16:15;;;;;;;1.80;1.70;;;;;;;;;;5072011;28;21107;-78
2023/01/04 04:18:41;;;;;;;1.53;1.43;;;;;;;;;;5074688;28;20799;-78
2023/01/04 04:21:07;;;;;;;3.37;2.27;;;;;;;;;;5100784;28;20424;-77
2023/01/04 04:23:33;;;;;;;1.00;1.00;;;;;;;;;;5088664;28;21129;-78
2023/01/04 04:25:59;;;;;;;1.60;1.50;;;;;;;;;;5092901;28;20461;-77
2023/01/04 04:28:25;;;;;;;2.57;1.50;;;;;;;;;;5092493;28;20436;-78
2023/01/04 04:30:51;;;;;;;1.63;1.57;;;;;;;;;;5087688;28;20460;-78
2023/01/04 04:33:17;;;;;;;1.40;1.20;;;;;;;;;;5081643;28;20450;-77
2023/01/04 04:35:43;;;;;;;1.20;1.10;;;;;;;;;;5072866;28;20439;-77
2023/01/04 04:38:09;;;;;;;1.03;0.63;;;;;;;;;;5089254;28;20571;-77
2023/01/04 04:43:22;;;;;;;0.93;0.83;;;;;;;;;;5075697;28;20478;-77
2023/01/04 04:45:48;;;;;;;0.90;0.90;;;;;;;;;;5091601;28;20419;-77
2023/01/04 04:48:14;;;;;;;1.60;1.07;;;;;;;;;;5086097;28;20432;-77
2023/01/04 04:50:40;;;;;;;1.07;1.07;;;;;;;;;;5085552;28;20457;-77
2023/01/04 04:53:06;;;;;;;6.90;1.70;;;;;;;;;;5080509;28;20443;-76
2023/01/04 04:55:32;;;;;;;0.80;0.80;;;;;;;;;;5068197;28;20428;-76
2023/01/04 04:57:58;;;;;;;0.87;0.87;;;;;;;;;;5089324;28;20794;-75
2023/01/04 05:00:24;;;;;;;1.10;1.00;;;;;;;;;;5084143;28;20429;-75
2023/01/04 05:02:50;;;;;;;0.93;0.93;;;;;;;;;;5081532;28;20497;-77
2023/01/04 05:05:16;;;;;;;0.90;0.90;;;;;;;;;;5085539;28;20461;-77
2023/01/04 05:07:42;;;;;;;3.00;0.80;;;;;;;;;;5089338;28;20427;-76
2023/01/04 05:10:08;;;;;;;9.67;1.43;;;;;;;;;;5087051;28;20958;-76
2023/01/04 05:15:19;;;;;;;0.97;0.67;;;;;;;;;;5088600;28;20415;-75
2023/01/04 05:17:45;;;;;;;1.53;0.80;;;;;;;;;;5087228;28;20444;-76
2023/01/04 05:20:11;;;;;;;1.13;0.70;;;;;;;;;;5090122;28;20432;-76
2023/01/04 05:22:37;;;;;;;1.33;0.50;;;;;;;;;;5089120;28;20865;-77
2023/01/04 05:25:03;;;;;;;0.60;0.60;;;;;;;;;;5083508;28;20412;-76
2023/01/04 05:27:29;;;;;;;0.40;0.40;;;;;;;;;;5091912;28;20499;-76
2023/01/04 05:32:43;;;;;;;3.03;0.33;;;;;;;;;;5081236;28;20418;-76
2023/01/04 05:35:09;;;;;;;0.40;0.40;;;;;;;;;;5085498;28;21047;-76
2023/01/04 05:37:35;;;;;;;0.50;0.50;;;;;;;;;;5093890;28;20467;-76
2023/01/04 05:40:01;;;;;;;0.50;0.50;;;;;;;;;;5090122;28;20503;-76
2023/01/04 05:42:27;;;;;;;0.93;0.93;;;;;;;;;;5095663;28;20434;-76
2023/01/04 05:44:53;;;;;;;0.40;0.40;;;;;;;;;;5072586;28;21470;-75
2023/01/04 05:47:20;;;;;;;0.40;0.40;;;;;;;;;;5071291;28;20486;-76
2023/01/04 05:49:46;;;;;;;0.70;0.70;;;;;;;;;;5084066;28;20470;-75
2023/01/04 05:52:15;;;;;;;0.40;0.40;;;;;;;;;;5076751;28;20544;-76
2023/01/04 05:54:41;;;;;;;0.33;0.33;;;;;;;;;;5075286;28;20424;-77
2023/01/04 05:57:07;;;;;;;0.90;0.90;;;;;;;;;;5080558;28;20427;-77
2023/01/04 05:59:33;;;;;;;1.50;0.67;;;;;;;;;;5073419;28;20392;-76
2023/01/04 06:01:59;;;;;;;0.50;0.50;;;;;;;;;;5083421;28;20431;-75
2023/01/04 06:04:25;;;;;;;0.60;0.40;;;;;;;;;;5100559;28;20412;-76
2023/01/04 06:06:51;;;;;;;0.60;0.60;;;;;;;;;;5085139;28;20451;-77
2023/01/04 06:09:17;;;;;;;0.40;0.40;;;;;;;;;;5083104;28;20457;-76
2023/01/04 06:11:43;;;;;;;0.40;0.40;;;;;;;;;;5082454;28;20471;-75
2023/01/04 06:14:10;;;;;;;0.33;0.33;;;;;;;;;;5082181;28;20469;-76
2023/01/04 06:16:36;;;;;;;0.77;0.77;;;;;;;;;;5084226;28;20436;-75
2023/01/04 06:19:02;;;;;;;0.70;0.70;;;;;;;;;;5085288;28;20768;-76
2023/01/04 06:21:28;;;;;;;0.57;0.57;;;;;;;;;;5079857;28;20440;-77
2023/01/04 06:23:54;;;;;;;0.60;0.60;;;;;;;;;;5083388;28;20503;-76
2023/01/04 06:26:20;;;;;;;0.50;0.50;;;;;;;;;;5080690;28;20779;-76
2023/01/04 06:28:46;;;;;;;1.60;1.00;;;;;;;;;;5083533;28;20412;-76
2023/01/04 06:31:13;;;;;;;0.53;0.53;;;;;;;;;;5076956;28;20545;-75
2023/01/04 06:33:39;;;;;;;0.60;0.60;;;;;;;;;;5097366;28;20423;-76
2023/01/04 06:36:06;;;;;;;0.50;0.50;;;;;;;;;;5084065;28;20489;-77
2023/01/04 06:38:32;;;;;;;0.80;0.50;;;;;;;;;;5095623;28;20799;-76
2023/01/04 06:40:58;;;;;;;0.50;0.50;;;;;;;;;;5084604;28;20505;-77
2023/01/04 06:43:27;;;;;;;0.70;0.70;;;;;;;;;;5107452;27;20454;-76
2023/01/04 06:45:53;;;;;;;0.50;0.50;;;;;;;;;;5087276;28;20492;-75
2023/01/04 06:48:19;;;;;;;0.50;0.50;;;;;;;;;;5086640;28;20446;-75
2023/01/04 06:50:45;;;;;;;0.60;0.47;;;;;;;;;;5085625;28;20463;-75
2023/01/04 06:53:11;;;;;;;0.40;0.40;;;;;;;;;;5083046;28;20574;-75
2023/01/04 06:55:37;;;;;;;0.50;0.50;;;;;;;;;;5079509;28;20512;-75
2023/01/04 06:58:03;;;;;;;0.47;0.30;;;;;;;;;;5073357;28;20547;-75
2023/01/04 07:00:29;;;;;;;0.50;0.50;;;;;;;;;;5077283;28;20428;-75
2023/01/04 07:02:55;;;;;;;0.50;0.50;;;;;;;;;;5087590;28;20807;-76
2023/01/04 07:05:21;;;;;;;0.83;0.60;;;;;;;;;;5087146;28;20885;-76
2023/01/04 07:07:47;;;;;;;0.37;0.37;;;;;;;;;;5082263;28;20505;-74
2023/01/04 07:10:13;;;;;;;0.30;0.30;;;;;;;;;;5078852;28;20459;-75
2023/01/04 07:12:39;;;;;;;0.30;0.30;;;;;;;;;;5086810;28;20815;-76
2023/01/04 07:15:05;;;;;;;0.30;0.30;;;;;;;;;;5083177;28;20431;-75
2023/01/04 07:17:31;;;;;;;0.40;0.40;;;;;;;;;;5087279;28;20439;-76
2023/01/04 07:19:57;;;;;;;0.60;0.60;;;;;;;;;;5085540;28;20536;-74
2023/01/04 07:22:23;;;;;;;0.60;0.60;;;;;;;;;;5072399;28;20528;-75
2023/01/04 07:24:49;;;;;;;0.40;0.40;;;;;;;;;;5078970;28;21082;-75
2023/01/04 07:27:15;;;;;;;1.80;0.30;;;;;;;;;;5088013;28;20851;-74
2023/01/04 07:29:43;;;;;;;0.57;0.57;;;;;;;;;;5087114;28;20462;-76
2023/01/04 07:32:09;;;;;;;2.10;0.50;;;;;;;;;;5071701;28;20439;-75
2023/01/04 07:34:36;;;;;;;0.53;0.53;;;;;;;;;;5075564;28;20456;-74
2023/01/04 07:37:02;;;;;;;0.40;0.40;;;;;;;;;;5081794;28;20775;-75
2023/01/04 07:39:28;;;;;;;0.40;0.40;;;;;;;;;;5076160;28;20404;-75
2023/01/04 07:41:55;;;;;;;0.60;0.60;;;;;;;;;;5074864;28;20444;-74
2023/01/04 07:44:21;;;;;;;0.47;0.47;;;;;;;;;;5090027;28;20526;-76
2023/01/04 07:46:47;;;;;;;1.90;0.53;;;;;;;;;;5077621;28;20443;-74
2023/01/04 07:49:17;;;;;;;0.67;0.67;;;;;;;;;;5085122;28;20455;-76
2023/01/04 07:51:43;;;;;;;0.40;0.40;;;;;;;;;;5081686;28;20790;-75
2023/01/04 07:54:09;;;;;;;0.47;0.40;;;;;;;;;;5089799;28;20503;-75
2023/01/04 07:56:35;;;;;;;4.63;0.80;;;;;;;;;;5079026;28;20707;-74
2023/01/04 07:59:05;;;;;;;0.30;0.30;;;;;;;;;;5100110;28;20419;-74
2023/01/04 08:01:31;;;;;;;0.50;0.50;;;;;;;;;;5090713;28;20470;-76
2023/01/04 08:03:57;;;;;;;0.60;0.60;;;;;;;;;;5083537;28;20953;-74
2023/01/04 08:06:23;;;;;;;0.70;0.70;;;;;;;;;;5088711;28;20442;-75
2023/01/04 08:08:49;;;;;;;0.70;0.70;;;;;;;;;;5077674;28;20966;-74
2023/01/04 08:11:16;;;;;;;0.60;0.60;;;;;;;;;;5096394;28;20515;-73
2023/01/04 08:13:43;;;;;;;0.47;0.47;;;;;;;;;;5081200;28;20442;-74
2023/01/04 08:16:17;;;;;;;0.40;0.40;;;;;;;;;;5076638;28;20735;-74
2023/01/04 08:18:43;;;;;;;0.40;0.40;;;;;;;;;;5083189;28;20447;-74
2023/01/04 08:21:09;;;;;;;1.20;0.60;;;;;;;;;;5085404;28;20429;-74
2023/01/04 08:23:36;;;;;;;0.40;0.40;;;;;;;;;;5081713;28;20817;-73
2023/01/04 08:26:06;;;;;;;0.53;0.53;;;;;;;;;;5079359;28;20545;-74
2023/01/04 08:28:33;;;;;;;0.50;0.50;;;;;;;;;;5083731;28;20421;-74
2023/01/04 08:30:59;;;;;;;0.60;0.60;;;;;;;;;;5076713;28;20464;-74
2023/01/04 08:33:27;;;;;;;0.60;0.60;;;;;;;;;;5080943;28;20512;-76
2023/01/04 08:35:53;;;;;;;0.50;0.50;;;;;;;;;;5083118;28;20820;-74
2023/01/04 08:38:19;;;;;;;0.50;0.50;;;;;;;;;;5074948;28;20522;-74
2023/01/04 08:40:45;;;;;;;0.50;0.50;;;;;;;;;;5081919;28;20424;-74
2023/01/04 08:43:11;;;;;;;0.60;0.60;;;;;;;;;;5078626;28;20781;-74
2023/01/04 08:45:37;;;;;;;0.40;0.40;;;;;;;;;;5084989;28;20454;-75
2023/01/04 08:48:03;;;;;;;0.20;0.20;;;;;;;;;;5083870;28;20444;-75
2023/01/04 08:50:29;;;;;;;0.40;0.40;;;;;;;;;;5081494;28;20463;-75
2023/01/04 08:52:55;;;;;;;0.33;0.33;;;;;;;;;;5094276;28;20530;-75
2023/01/04 08:55:21;;;;;;;0.50;0.50;;;;;;;;;;5095322;28;21020;-74
2023/01/04 08:57:47;;;;;;;0.40;0.40;;;;;;;;;;5092302;28;20446;-74
2023/01/04 09:00:13;;;;;;;0.40;0.40;;;;;;;;;;5080839;28;20455;-74
2023/01/04 09:02:39;;;;;;;0.73;0.50;;;;;;;;;;5098495;27;20424;-75
2023/01/04 09:05:06;;;;;;;0.47;0.47;;;;;;;;;;5088668;28;20981;-75
2023/01/04 09:07:32;;;;;;;0.40;0.40;;;;;;;;;;5087844;28;20420;-74
2023/01/04 09:09:59;;;;;;;0.50;0.50;;;;;;;;;;5080676;28;20467;-75
2023/01/04 09:12:25;;;;;;;0.83;0.47;;;;;;;;;;5093468;28;20817;-75
2023/01/04 09:14:51;;;;;;;0.40;0.40;;;;;;;;;;5088540;28;20497;-75
2023/01/04 09:17:17;;;;;;;0.30;0.30;;;;;;;;;;5098158;28;20929;-75
2023/01/04 09:19:46;;;;;;;0.60;0.60;;;;;;;;;;5085607;28;20439;-75
2023/01/04 09:22:12;;;;;;;0.53;0.53;;;;;;;;;;5092132;28;20448;-75
2023/01/04 09:24:38;;;;;;;0.40;0.40;;;;;;;;;;5083451;28;20435;-75
2023/01/04 09:27:04;;;;;;;4.50;0.67;;;;;;;;;;5096629;28;20439;-73
2023/01/04 09:29:30;;;;;;;0.50;0.50;;;;;;;;;;5077248;28;20919;-75
2023/01/04 09:31:56;;;;;;;0.50;0.50;;;;;;;;;;5094076;28;20444;-75
2023/01/04 09:34:22;;;;;;;0.50;0.50;;;;;;;;;;5084168;28;20435;-75
2023/01/04 09:36:49;;;;;;;2.10;0.50;;;;;;;;;;5098514;27;20451;-75
2023/01/04 09:39:16;;;;;;;0.60;0.60;;;;;;;;;;5087100;28;20414;-75
2023/01/04 09:41:58;;;;;;;0.57;0.50;;;;;;;;;;5088653;28;20507;-76
2023/01/04 09:44:24;;;;;;;0.40;0.40;;;;;;;;;;5085065;28;21001;-76
2023/01/04 09:47:11;;;;;;;0.50;0.50;;;;;;;;;;5088024;28;20708;-75
2023/01/04 09:49:46;;;;;;;0.50;0.50;;;;;;;;;;5084793;28;20455;-74
2023/01/04 09:52:16;;;;;;;0.50;0.50;;;;;;;;;;5094308;28;20444;-76
2023/01/04 09:54:47;;;;;;;0.40;0.40;;;;;;;;;;5085398;28;20725;-76
2023/01/04 09:57:25;;;;;;;0.50;0.50;;;;;;;;;;5092620;28;20514;-76
2023/01/04 09:59:53;;;;;;;0.50;0.47;;;;;;;;;;5085478;28;20412;-75
2023/01/04 10:02:24;;;;;;;0.43;0.43;;;;;;;;;;5082246;28;20400;-76
2023/01/04 10:04:50;;;;;;;0.60;0.47;;;;;;;;;;5083505;28;20417;-77
2023/01/04 10:07:21;;;;;;;0.30;0.30;;;;;;;;;;5085407;28;20416;-75
2023/01/04 10:09:47;;;;;;;3.50;0.80;;;;;;;;;;5071459;28;20533;-77
2023/01/04 10:12:31;;;;;;;0.30;0.30;;;;;;;;;;5085988;28;20799;-77
2023/01/04 10:15:08;;;;;;;1.47;0.87;;;;;;;;;;5093563;28;20425;-76
2023/01/04 10:17:43;;;;;;;0.47;0.47;;;;;;;;;;5079176;28;20391;-77
2023/01/04 10:20:12;;;;;;;0.53;0.53;;;;;;;;;;5080882;28;20439;-75
2023/01/04 10:22:38;;;;;;;0.70;0.53;;;;;;;;;;5075687;28;20458;-75
2023/01/04 10:25:23;;;;;;;1.40;0.70;;;;;;;;;;5081478;28;20507;-76
2023/01/04 10:28:10;;;;;;;1.80;0.80;;;;;;;;;;5082903;28;20436;-77
2023/01/04 10:30:45;;;;;;;0.50;0.50;;;;;;;;;;5072446;28;20540;-77
2023/01/04 10:33:30;;;;;;;0.60;0.60;;;;;;;;;;5090931;28;20437;-78
2023/01/04 10:35:56;;;;;;;0.80;0.80;;;;;;;;;;5076481;28;20424;-77
2023/01/04 10:38:27;;;;;;;0.97;0.70;;;;;;;;;;5082237;28;20514;-77
2023/01/04 10:40:55;;;;;;;0.70;0.70;;;;;;;;;;5078041;28;20936;-77
2023/01/04 10:43:27;;;;;;;1.17;0.97;;;;;;;;;;5082010;28;20685;-76
2023/01/04 10:46:01;;;;;;;0.63;0.63;;;;;;;;;;5077183;28;20607;-76
2023/01/04 10:48:42;;;;;;;0.80;0.67;;;;;;;;;;5090026;28;20439;-76
2023/01/04 10:51:10;;;;;;;1.37;1.37;;;;;;;;;;5083782;28;20954;-79
2023/01/04 10:53:39;;;;;;;0.90;0.90;;;;;;;;;;5084651;28;20436;-76
2023/01/04 10:56:12;;;;;;;1.00;1.00;;;;;;;;;;5083555;28;20798;-76
2023/01/04 10:58:50;;;;;;;0.60;0.60;;;;;;;;;;5080800;28;20441;-77
2023/01/04 11:01:29;;;;;;;0.50;0.50;;;;;;;;;;5085029;28;20953;-76
2023/01/04 11:03:58;;;;;;;0.53;0.53;;;;;;;;;;5080383;28;20435;-78
2023/01/04 11:06:30;;;;;;;0.70;0.70;;;;;;;;;;5095360;27;20429;-77
2023/01/04 11:08:59;;;;;;;0.73;0.73;;;;;;;;;;5081707;28;20575;-77
2023/01/04 11:11:27;;;;;;;1.57;0.87;;;;;;;;;;5088780;28;20490;-76
2023/01/04 11:13:53;;;;;;;4.40;1.30;;;;;;;;;;5090703;28;20458;-75
2023/01/04 11:16:19;;;;;;;11.43;0.80;;;;;;;;;;5077584;28;20396;-77
2023/01/04 11:18:46;;;;;;;1.33;1.30;;;;;;;;;;5085767;28;20596;-76
2023/01/04 11:21:14;;;;;;;2.23;0.90;;;;;;;;;;5085382;28;20516;-76
2023/01/04 11:23:40;;;;;;;1.40;0.70;;;;;;;;;;5086330;28;20440;-77
2023/01/04 11:26:17;;;;;;;0.90;0.90;;;;;;;;;;5068778;28;21086;-76
2023/01/04 11:28:58;;;;;;;0.80;0.80;;;;;;;;;;5082452;28;20436;-76
2023/01/04 11:31:28;;;;;;;1.00;0.87;;;;;;;;;;5089519;28;20463;-75
2023/01/04 11:33:59;;;;;;;1.20;1.13;;;;;;;;;;5079169;28;20444;-76
2023/01/04 11:36:31;;;;;;;1.10;1.10;;;;;;;;;;5083161;28;20428;-76
2023/01/04 11:38:57;;;;;;;1.17;1.17;;;;;;;;;;5083345;28;20447;-76
2023/01/04 11:41:24;;;;;;;0.67;0.67;;;;;;;;;;5078407;28;20868;-76
2023/01/04 11:44:04;;;;;;;0.90;0.90;;;;;;;;;;5076855;28;20439;-77
2023/01/04 11:46:31;;;;;;;1.10;1.00;;;;;;;;;;5089098;28;20467;-75
2023/01/04 11:48:58;;;;;;;0.63;0.63;;;;;;;;;;5082794;28;20439;-76
2023/01/04 11:51:27;;;;;;;0.70;0.70;;;;;;;;;;5090820;28;20465;-77
2023/01/04 11:54:04;;;;;;;0.97;0.87;;;;;;;;;;5078276;28;20470;-75
2023/01/04 11:56:34;;;;;;;0.83;0.83;;;;;;;;;;5085664;28;20503;-74
2023/01/04 11:59:06;;;;;;;0.50;0.50;;;;;;;;;;5079889;28;20436;-77
2023/01/04 12:01:34;;;;;;;0.60;0.60;;;;;;;;;;5080246;28;20428;-77
2023/01/04 12:04:01;;;;;;;0.70;0.70;;;;;;;;;;5097118;28;20527;-76
2023/01/04 12:06:50;;;;;;;1.50;0.80;;;;;;;;;;5088239;28;20485;-76
2023/01/04 12:09:17;;;;;;;0.67;0.67;;;;;;;;;;5079062;28;20541;-76
2023/01/04 12:11:48;;;;;;;0.87;0.87;;;;;;;;;;5079135;28;20843;-77
2023/01/04 12:14:18;;;;;;;2.03;0.60;;;;;;;;;;5075232;28;20730;-76
2023/01/04 12:16:47;;;;;;;0.53;0.53;;;;;;;;;;5079546;28;20435;-77
2023/01/04 12:19:17;;;;;;;0.80;0.80;;;;;;;;;;5082623;28;20423;-78
2023/01/04 12:21:44;;;;;;;1.10;1.10;;;;;;;;;;5078139;28;20492;-77
2023/01/04 12:24:15;;;;;;;0.90;0.90;;;;;;;;;;5083715;28;20409;-76
2023/01/04 12:26:42;;;;;;;0.93;0.93;;;;;;;;;;5076015;28;20408;-76
2023/01/04 12:29:23;;;;;;;0.70;0.70;;;;;;;;;;5078831;28;20405;-76
2023/01/04 12:32:13;;;;;;;0.80;0.80;;;;;;;;;;5073930;28;20439;-78
2023/01/04 12:34:40;;;;;;;0.80;0.80;;;;;;;;;;5075493;28;20915;-76
2023/01/04 12:37:06;;;;;;;0.60;0.60;;;;;;;;;;5095479;28;20988;-76
2023/01/04 12:39:37;;;;;;;2.67;1.10;;;;;;;;;;5090518;28;20530;-76
2023/01/04 12:42:07;;;;;;;0.90;0.90;;;;;;;;;;5088797;28;20430;-75
2023/01/04 12:44:36;;;;;;;1.30;1.30;;;;;;;;;;5090317;28;20451;-76
2023/01/04 12:50:09;;;;;;;1.00;1.00;;;;;;;;;;5078498;28;20544;-76
2023/01/04 12:52:40;;;;;;;2.40;1.07;;;;;;;;;;5083563;28;20478;-74
2023/01/04 12:55:24;;;;;;;1.20;0.90;;;;;;;;;;5077461;28;21216;-77
2023/01/04 12:57:50;;;;;;;2.10;0.70;;;;;;;;;;5078873;28;20534;-74
2023/01/04 13:00:16;;;;;;;5.20;0.97;;;;;;;;;;5087538;28;20749;-76
2023/01/04 13:02:46;;;;;;;0.77;0.77;;;;;;;;;;5087457;28;20435;-76
2023/01/04 13:05:18;;;;;;;0.80;0.80;;;;;;;;;;5088952;28;20756;-77
2023/01/04 13:07:49;;;;;;;0.70;0.70;;;;;;;;;;5079533;28;20432;-77
2023/01/04 13:10:24;;;;;;;1.90;0.70;;;;;;;;;;5082376;28;20477;-77
2023/01/04 13:12:56;;;;;;;0.53;0.53;;;;;;;;;;5086302;28;20454;-77
2023/01/04 13:15:24;;;;;;;0.60;0.60;;;;;;;;;;5069868;28;20458;-77
2023/01/04 13:17:50;;;;;;;0.70;0.70;;;;;;;;;;5095693;28;20748;-76
2023/01/04 13:20:19;;;;;;;0.50;0.50;;;;;;;;;;5100002;28;20451;-75
2023/01/04 13:22:48;;;;;;;0.83;0.83;;;;;;;;;;5085560;28;20440;-74
2023/01/04 13:25:16;;;;;;;0.73;0.73;;;;;;;;;;5089810;28;20431;-74
2023/01/04 13:27:55;;;;;;;0.60;0.60;;;;;;;;;;5076619;28;20800;-75
2023/01/04 13:30:31;;;;;;;0.67;0.67;;;;;;;;;;5090441;28;21029;-76
2023/01/04 13:32:57;;;;;;;0.57;0.57;;;;;;;;;;5083182;28;20522;-75
2023/01/04 13:35:23;;;;;;;0.60;0.60;;;;;;;;;;5086537;28;20437;-77
2023/01/04 13:37:50;;;;;;;0.77;0.77;;;;;;;;;;5080064;28;21150;-76
2023/01/04 13:40:16;;;;;;;0.77;0.50;;;;;;;;;;5082186;28;20445;-75
2023/01/04 13:42:44;;;;;;;0.50;0.50;;;;;;;;;;5077343;28;20427;-76
2023/01/04 13:45:17;;;;;;;2.23;2.23;;;;;;;;;;5089180;28;20757;-76
2023/01/04 13:47:44;;;;;;;0.50;0.50;;;;;;;;;;5080257;28;21078;-76
2023/01/04 13:50:20;;;;;;;0.60;0.60;;;;;;;;;;5084993;28;20582;-75
2023/01/04 13:52:46;;;;;;;0.50;0.50;;;;;;;;;;5075374;28;20454;-76
2023/01/04 13:55:19;;;;;;;0.63;0.63;;;;;;;;;;5080092;28;20504;-77
2023/01/04 13:57:58;;;;;;;0.50;0.50;;;;;;;;;;5104936;27;20420;-77
2023/01/04 14:00:25;;;;;;;0.60;0.60;;;;;;;;;;5085035;28;20407;-76
2023/01/04 14:03:10;;;;;;;0.63;0.60;;;;;;;;;;5084689;28;20446;-76
2023/01/04 14:05:43;;;;;;;0.50;0.50;;;;;;;;;;5086703;28;20407;-78
2023/01/04 14:14:18;;;;;;;0.37;0.37;;;;;;;;;;5084475;28;20523;-76
2023/01/04 14:16:44;;;;;;;5.10;0.93;;;;;;;;;;5083332;28;20753;-78
2023/01/04 14:19:28;;;;;;;0.40;0.40;;;;;;;;;;5078927;28;20469;-76
2023/01/04 14:21:55;;;;;;;0.80;0.80;;;;;;;;;;5099162;27;20771;-77
2023/01/04 14:24:31;;;;;;;0.63;0.63;;;;;;;;;;5095312;28;20571;-77
2023/01/04 14:26:57;;;;;;;0.60;0.60;;;;;;;;;;5097036;28;20942;-77
2023/01/04 14:29:32;;;;;;;0.60;0.60;;;;;;;;;;5081135;28;20451;-76
2023/01/04 14:31:58;;;;;;;0.87;0.60;;;;;;;;;;5074619;28;20501;-77
2023/01/04 14:34:24;;;;;;;0.87;0.87;;;;;;;;;;5084997;28;20462;-78
2023/01/04 14:36:50;;;;;;;0.93;0.93;;;;;;;;;;5084249;28;20976;-78
2023/01/04 14:39:23;;;;;;;1.37;1.37;;;;;;;;;;5099693;27;21037;-78
2023/01/04 14:41:49;;;;;;;0.70;0.70;;;;;;;;;;5098229;27;20448;-77
2023/01/04 14:44:16;;;;;;;0.50;0.50;;;;;;;;;;5077655;28;20439;-76
2023/01/04 14:46:45;;;;;;;2.70;0.90;;;;;;;;;;5077861;28;20445;-77
2023/01/04 14:49:11;;;;;;;0.70;0.70;;;;;;;;;;5085504;28;20501;-76
2023/01/04 14:51:44;;;;;;;0.60;0.60;;;;;;;;;;5085314;28;21181;-74
2023/01/04 14:54:11;;;;;;;0.70;0.70;;;;;;;;;;5074339;28;20442;-77
2023/01/04 14:56:37;;;;;;;2.87;1.87;;;;;;;;;;5077732;28;20528;-77
2023/01/04 14:59:03;;;;;;;0.87;0.87;;;;;;;;;;5102177;27;21019;-75
2023/01/04 15:01:29;;;;;;;0.87;0.87;;;;;;;;;;5080634;28;20471;-76
2023/01/04 15:03:58;;;;;;;0.73;0.73;;;;;;;;;;5087975;28;20467;-78
2023/01/04 15:06:25;;;;;;;1.70;1.70;;;;;;;;;;5080184;28;20949;-76
2023/01/04 15:08:51;;;;;;;2.83;1.40;;;;;;;;;;5082231;28;20464;-78
2023/01/04 15:11:17;;;;;;;4.13;2.50;;;;;;;;;;5082179;28;20597;-78
2023/01/04 15:13:44;;;;;;;0.93;0.93;;;;;;;;;;5089475;28;20545;-78
2023/01/04 15:16:15;;;;;;;0.83;0.83;;;;;;;;;;5077159;28;20483;-77
2023/01/04 15:18:41;;;;;;;0.80;0.80;;;;;;;;;;5081198;28;20520;-76
2023/01/04 15:21:08;;;;;;;0.90;0.90;;;;;;;;;;5086358;28;20448;-77
2023/01/04 15:23:34;;;;;;;1.27;1.17;;;;;;;;;;5096936;27;20455;-77
2023/01/04 15:26:03;;;;;;;0.80;0.80;;;;;;;;;;5081905;28;20514;-75
2023/01/04 15:28:29;;;;;;;0.70;0.70;;;;;;;;;;5075252;28;20443;-77
2023/01/04 15:30:56;;;;;;;0.70;0.70;;;;;;;;;;5087008;28;20974;-77
2023/01/04 15:33:22;;;;;;;0.90;0.90;;;;;;;;;;5094604;27;20451;-81
2023/01/04 15:35:57;;;;;;;0.60;0.60;;;;;;;;;;5077561;28;20458;-77
2023/01/04 15:38:23;;;;;;;0.83;0.80;;;;;;;;;;5081226;28;20443;-77
2023/01/04 15:40:49;;;;;;;0.90;0.90;;;;;;;;;;5083334;28;20493;-78
2023/01/04 15:43:15;;;;;;;0.70;0.70;;;;;;;;;;5089777;28;21037;-75
2023/01/04 15:45:41;;;;;;;1.00;1.00;;;;;;;;;;5073929;28;20883;-78
2023/01/04 15:48:09;;;;;;;1.43;0.90;;;;;;;;;;5081626;28;20428;-77
2023/01/04 15:50:36;;;;;;;0.60;0.60;;;;;;;;;;5083703;28;20501;-79